sensor_id;sensor_type;location;lat;lon;timestamp;pressure;altitude;pressure_sealevel;temperature;humidity
61880;BME280;47817;52.798;27.544;2023-01-28T00:01:49;1029.7;;;1.1;80.4
61880;BME280;47817;52.798;27.544;2023-01-28T00:06:07;1029.7;;;1.1;80.4
61880;BME280;47817;52.798;27.544;2023-01-28T00:11:48;1029.8;;;1;80.5
61880;BME280;47817;52.798;27.544;2023-01-28T00:16:26;1029.8;;;1.1;80.6
61880;BME280;47817;52.798;27.544;2023-01-28T00:21:38;1029.8;;;1.1;80.6
61880;BME280;47817;52.798;27.544;2023-01-28T00:26:17;1029.8;;;1.2;80.7
61880;BME280;47817;52.798;27.544;2023-01-28T00:31:38;1029.9;;;1.2;81.1
61880;BME280;47817;52.798;27.544;2023-01-28T00:36:17;1029.9;;;1.4;81
61880;BME280;47817;52.798;27.544;2023-01-28T00:41:51;1029.9;;;1.4;80.9
61880;BME280;47817;52.798;27.544;2023-01-28T00:46:48;1029.8;;;1.4;80.7
61880;BME280;47817;52.798;27.544;2023-01-28T00:51:36;1029.8;;;1.4;80.6
61880;BME280;47817;52.798;27.544;2023-01-28T00:56:50;1029.8;;;1.4;80.6
61880;BME280;47817;52.798;27.544;2023-01-28T01:01:07;1029.8;;;1.5;80.8
61880;BME280;47817;52.798;27.544;2023-01-28T01:06:39;1029.7;;;1.5;80.7
61880;BME280;47817;52.798;27.544;2023-01-28T01:11:26;1029.7;;;1.6;80.8
61880;BME280;47817;52.798;27.544;2023-01-28T01:16:38;1029.7;;;1.6;80.9
61880;BME280;47817;52.798;27.544;2023-01-28T01:21:29;1029.7;;;1.6;81
61880;BME280;47817;52.798;27.544;2023-01-28T01:26:36;1029.6;;;1.6;81.1
61880;BME280;47817;52.798;27.544;2023-01-28T01:31:18;1029.6;;;1.7;81
61880;BME280;47817;52.798;27.544;2023-01-28T01:36:48;1029.6;;;1.7;80.8
61880;BME280;47817;52.798;27.544;2023-01-28T01:41:39;1029.6;;;1.7;80.7
61880;BME280;47817;52.798;27.544;2023-01-28T01:46:41;1029.6;;;1.7;80.7
61880;BME280;47817;52.798;27.544;2023-01-28T01:51:50;1029.6;;;1.7;80.9
61880;BME280;47817;52.798;27.544;2023-01-28T01:56:07;1029.6;;;1.7;81
61880;BME280;47817;52.798;27.544;2023-01-28T02:01:38;1029.6;;;1.7;81.1
61880;BME280;47817;52.798;27.544;2023-01-28T02:06:06;1029.6;;;1.8;81
61880;BME280;47817;52.798;27.544;2023-01-28T02:11:38;1029.6;;;1.7;81.2
61880;BME280;47817;52.798;27.544;2023-01-28T02:16:16;1029.6;;;1.8;80.9
61880;BME280;47817;52.798;27.544;2023-01-28T02:21:48;1029.6;;;1.9;80.9
61880;BME280;47817;52.798;27.544;2023-01-28T02:26:24;1029.6;;;1.9;80.7
61880;BME280;47817;52.798;27.544;2023-01-28T02:31:22;1029.6;;;2;80.6
61880;BME280;47817;52.798;27.544;2023-01-28T02:36:38;1029.6;;;1.9;80.7
61880;BME280;47817;52.798;27.544;2023-01-28T02:41:49;1029.6;;;2;80.6
61880;BME280;47817;52.798;27.544;2023-01-28T02:46:33;1029.5;;;2;80.6
61880;BME280;47817;52.798;27.544;2023-01-28T02:51:20;1029.5;;;1.9;80.7
61880;BME280;47817;52.798;27.544;2023-01-28T02:57:04;1029.5;;;1.9;80.8
61880;BME280;47817;52.798;27.544;2023-01-28T03:01:08;1029.5;;;1.9;81.1
61880;BME280;47817;52.798;27.544;2023-01-28T03:06:42;1029.5;;;1.8;81.2
61880;BME280;47817;52.798;27.544;2023-01-28T03:11:18;1029.5;;;1.8;81.4
61880;BME280;47817;52.798;27.544;2023-01-28T03:16:53;1029.5;;;1.8;81.3
61880;BME280;47817;52.798;27.544;2023-01-28T03:21:31;1029.5;;;1.7;81.4
61880;BME280;47817;52.798;27.544;2023-01-28T03:26:26;1029.5;;;1.7;81.4
61880;BME280;47817;52.798;27.544;2023-01-28T03:31:38;1029.5;;;1.6;81.7
61880;BME280;47817;52.798;27.544;2023-01-28T03:36:50;1029.6;;;1.6;81.8
61880;BME280;47817;52.798;27.544;2023-01-28T03:41:07;1029.6;;;1.7;81.9
61880;BME280;47817;52.798;27.544;2023-01-28T03:46:06;1029.6;;;1.6;81.8
61880;BME280;47817;52.798;27.544;2023-01-28T03:51:50;1029.5;;;1.6;81.9
61880;BME280;47817;52.798;27.544;2023-01-28T03:56:18;1029.5;;;1.6;81.9
61880;BME280;47817;52.798;27.544;2023-01-28T04:01:38;1029.5;;;1.6;81.6
61880;BME280;47817;52.798;27.544;2023-01-28T04:06:51;1029.5;;;1.6;81.8
61880;BME280;47817;52.798;27.544;2023-01-28T04:11:53;1029.5;;;1.6;81.7
61880;BME280;47817;52.798;27.544;2023-01-28T04:16:28;1029.5;;;1.6;81.6
61880;BME280;47817;52.798;27.544;2023-01-28T04:21:53;1029.5;;;1.6;81.6
61880;BME280;47817;52.798;27.544;2023-01-28T04:26:16;1029.5;;;1.5;81.5
61880;BME280;47817;52.798;27.544;2023-01-28T04:31:19;1029.5;;;1.5;81.8
61880;BME280;47817;52.798;27.544;2023-01-28T04:36:30;1029.5;;;1.5;81.8
61880;BME280;47817;52.798;27.544;2023-01-28T04:41:20;1029.5;;;1.5;81.9
61880;BME280;47817;52.798;27.544;2023-01-28T04:46:30;1029.5;;;1.4;81.7
61880;BME280;47817;52.798;27.544;2023-01-28T04:51:36;1029.5;;;1.3;81.7
61880;BME280;47817;52.798;27.544;2023-01-28T04:56:28;1029.5;;;1.3;81.8
61880;BME280;47817;52.798;27.544;2023-01-28T05:01:48;1029.6;;;1.3;81.8
61880;BME280;47817;52.798;27.544;2023-01-28T05:06:06;1029.5;;;1.2;81.9
61880;BME280;47817;52.798;27.544;2023-01-28T05:11:26;1029.5;;;1.1;82
61880;BME280;47817;52.798;27.544;2023-01-28T05:16:52;1029.5;;;1;82.1
61880;BME280;47817;52.798;27.544;2023-01-28T05:21:28;1029.6;;;0.9;82.4
61880;BME280;47817;52.798;27.544;2023-01-28T05:26:16;1029.6;;;0.8;82.7
61880;BME280;47817;52.798;27.544;2023-01-28T05:31:28;1029.6;;;0.7;82.7
61880;BME280;47817;52.798;27.544;2023-01-28T05:36:06;1029.6;;;0.7;82.6
61880;BME280;47817;52.798;27.544;2023-01-28T05:41:07;1029.6;;;0.8;82.6
61880;BME280;47817;52.798;27.544;2023-01-28T05:46:52;1029.6;;;0.8;82.6
61880;BME280;47817;52.798;27.544;2023-01-28T05:51:30;1029.7;;;0.8;82.5
61880;BME280;47817;52.798;27.544;2023-01-28T05:56:50;1029.7;;;0.8;82.3
61880;BME280;47817;52.798;27.544;2023-01-28T06:01:20;1029.7;;;0.8;82.2
61880;BME280;47817;52.798;27.544;2023-01-28T06:06:53;1029.8;;;0.7;82.2
61880;BME280;47817;52.798;27.544;2023-01-28T06:11:06;1029.9;;;0.7;82.3
61880;BME280;47817;52.798;27.544;2023-01-28T06:16:48;1029.9;;;0.8;82.2
61880;BME280;47817;52.798;27.544;2023-01-28T06:21:18;1029.9;;;0.8;82.1
61880;BME280;47817;52.798;27.544;2023-01-28T06:26:50;1029.9;;;0.8;81.9
61880;BME280;47817;52.798;27.544;2023-01-28T06:31:16;1030;;;0.8;81.8
61880;BME280;47817;52.798;27.544;2023-01-28T06:36:51;1030;;;0.7;81.7
61880;BME280;47817;52.798;27.544;2023-01-28T06:41:54;1030;;;0.6;81.8
61880;BME280;47817;52.798;27.544;2023-01-28T06:46:43;1030;;;0.7;81.8
61880;BME280;47817;52.798;27.544;2023-01-28T06:51:42;1030.1;;;0.8;81.8
61880;BME280;47817;52.798;27.544;2023-01-28T06:56:16;1030.1;;;0.9;81.7
61880;BME280;47817;52.798;27.544;2023-01-28T07:01:50;1030.1;;;1.1;81.4
61880;BME280;47817;52.798;27.544;2023-01-28T07:06:06;1030.1;;;1.3;81
61880;BME280;47817;52.798;27.544;2023-01-28T07:11:38;1030.2;;;1.4;80.7
61880;BME280;47817;52.798;27.544;2023-01-28T07:16:41;1030.1;;;1.6;80.5
61880;BME280;47817;52.798;27.544;2023-01-28T07:21:52;1030.2;;;1.8;80.1
61880;BME280;47817;52.798;27.544;2023-01-28T07:26:30;1030.1;;;2;79.5
61880;BME280;47817;52.798;27.544;2023-01-28T07:31:49;1030.1;;;2.1;79.1
61880;BME280;47817;52.798;27.544;2023-01-28T07:36:51;1030.2;;;2.1;78.6
61880;BME280;47817;52.798;27.544;2023-01-28T07:41:40;1030.2;;;2.3;78.3
61880;BME280;47817;52.798;27.544;2023-01-28T07:46:42;1030.2;;;2.5;77.8
61880;BME280;47817;52.798;27.544;2023-01-28T07:51:31;1030.1;;;2.7;77.4
61880;BME280;47817;52.798;27.544;2023-01-28T07:56:38;1030.1;;;2.9;76.9
61880;BME280;47817;52.798;27.544;2023-01-28T08:01:07;1030.1;;;2.9;76.2
61880;BME280;47817;52.798;27.544;2023-01-28T08:06:38;1030.1;;;2.8;76.1
61880;BME280;47817;52.798;27.544;2023-01-28T08:11:07;1030.1;;;2.8;75.3
61880;BME280;47817;52.798;27.544;2023-01-28T08:16:41;1030.2;;;2.8;75.3
61880;BME280;47817;52.798;27.544;2023-01-28T08:21:40;1030.1;;;2.8;75.2
61880;BME280;47817;52.798;27.544;2023-01-28T08:26:50;1030.1;;;2.9;74.8
61880;BME280;47817;52.798;27.544;2023-01-28T08:31:38;1030.1;;;3.1;74.2
61880;BME280;47817;52.798;27.544;2023-01-28T08:36:38;1030.1;;;3.4;73.6
61880;BME280;47817;52.798;27.544;2023-01-28T08:41:51;1030.1;;;3.4;72.8
61880;BME280;47817;52.798;27.544;2023-01-28T08:46:06;1030.1;;;3.3;72.3
61880;BME280;47817;52.798;27.544;2023-01-28T08:51:43;1030.1;;;3.2;72.2
61880;BME280;47817;52.798;27.544;2023-01-28T08:56:26;1030.1;;;3.4;71.5
61880;BME280;47817;52.798;27.544;2023-01-28T09:01:06;1030.1;;;3.5;70.9
61880;BME280;47817;52.798;27.544;2023-01-28T09:06:07;1030;;;3.5;70.5
61880;BME280;47817;52.798;27.544;2023-01-28T09:11:50;1030;;;3.6;70.2
61880;BME280;47817;52.798;27.544;2023-01-28T09:16:17;1030;;;3.6;69.6
61880;BME280;47817;52.798;27.544;2023-01-28T09:21:30;1030;;;3.6;69.9
61880;BME280;47817;52.798;27.544;2023-01-28T09:26:41;1029.9;;;3.5;70.3
61880;BME280;47817;52.798;27.544;2023-01-28T09:31:50;1029.9;;;3.2;70.2
61880;BME280;47817;52.798;27.544;2023-01-28T09:36:31;1029.9;;;3.1;70
61880;BME280;47817;52.798;27.544;2023-01-28T09:41:32;1029.8;;;3.1;69.9
61880;BME280;47817;52.798;27.544;2023-01-28T09:46:51;1029.8;;;3.2;69.7
61880;BME280;47817;52.798;27.544;2023-01-28T09:51:07;1029.8;;;3.4;69.3
61880;BME280;47817;52.798;27.544;2023-01-28T09:56:25;1029.8;;;3.7;68.5
61880;BME280;47817;52.798;27.544;2023-01-28T10:01:52;1029.8;;;3.7;68.4
61880;BME280;47817;52.798;27.544;2023-01-28T10:06:44;1029.8;;;3.7;67.5
61880;BME280;47817;52.798;27.544;2023-01-28T10:11:45;1029.7;;;3.9;66.9
61880;BME280;47817;52.798;27.544;2023-01-28T10:16:55;1029.7;;;3.8;67.5
61880;BME280;47817;52.798;27.544;2023-01-28T10:21:32;1029.7;;;3.5;67.6
61880;BME280;47817;52.798;27.544;2023-01-28T10:26:29;1029.7;;;3.5;67.4
61880;BME280;47817;52.798;27.544;2023-01-28T10:31:32;1029.6;;;3.5;67.3
61880;BME280;47817;52.798;27.544;2023-01-28T10:36:07;1029.6;;;3.7;67.3
61880;BME280;47817;52.798;27.544;2023-01-28T10:41:29;1029.5;;;3.8;67
61880;BME280;47817;52.798;27.544;2023-01-28T10:46:41;1029.5;;;4;66.6
61880;BME280;47817;52.798;27.544;2023-01-28T10:51:29;1029.5;;;4;66.6
61880;BME280;47817;52.798;27.544;2023-01-28T10:56:54;1029.4;;;4;66.8
61880;BME280;47817;52.798;27.544;2023-01-28T11:01:44;1029.4;;;3.9;67.1
61880;BME280;47817;52.798;27.544;2023-01-28T11:06:22;1029.4;;;3.8;67.5
61880;BME280;47817;52.798;27.544;2023-01-28T11:11:53;1029.3;;;3.8;67.4
61880;BME280;47817;52.798;27.544;2023-01-28T11:16:41;1029.2;;;3.8;67.1
61880;BME280;47817;52.798;27.544;2023-01-28T11:21:12;1029.2;;;3.8;67.2
61880;BME280;47817;52.798;27.544;2023-01-28T11:26:07;1029.2;;;3.7;67.1
61880;BME280;47817;52.798;27.544;2023-01-28T11:31:19;1029.2;;;3.7;67.4
61880;BME280;47817;52.798;27.544;2023-01-28T11:36:15;1029.1;;;3.5;67.8
61880;BME280;47817;52.798;27.544;2023-01-28T11:41:22;1029.1;;;3.4;68
61880;BME280;47817;52.798;27.544;2023-01-28T11:47:04;1029.1;;;3.4;67.9
61880;BME280;47817;52.798;27.544;2023-01-28T11:51:52;1029.1;;;3.4;67.9
61880;BME280;47817;52.798;27.544;2023-01-28T11:56:35;1029.1;;;3.3;68
61880;BME280;47817;52.798;27.544;2023-01-28T12:01:41;1029;;;3.3;68.2
61880;BME280;47817;52.798;27.544;2023-01-28T12:06:51;1029;;;3.4;67.8
61880;BME280;47817;52.798;27.544;2023-01-28T12:11:42;1029;;;3.3;67.6
61880;BME280;47817;52.798;27.544;2023-01-28T12:16:34;1029;;;3.3;67.5
61880;BME280;47817;52.798;27.544;2023-01-28T12:21:31;1028.9;;;3.3;67.9
61880;BME280;47817;52.798;27.544;2023-01-28T12:26:08;1028.9;;;3.3;67.9
61880;BME280;47817;52.798;27.544;2023-01-28T12:31:30;1028.9;;;3.3;67.9
61880;BME280;47817;52.798;27.544;2023-01-28T12:36:51;1028.9;;;3.1;68
61880;BME280;47817;52.798;27.544;2023-01-28T12:41:07;1028.9;;;3;68
61880;BME280;47817;52.798;27.544;2023-01-28T12:46:53;1028.9;;;2.9;67.9
61880;BME280;47817;52.798;27.544;2023-01-28T12:51:29;1028.9;;;2.8;68.1
61880;BME280;47817;52.798;27.544;2023-01-28T12:56:49;1028.8;;;2.8;68.1
61880;BME280;47817;52.798;27.544;2023-01-28T13:01:38;1028.8;;;2.8;67.9
61880;BME280;47817;52.798;27.544;2023-01-28T13:06:40;1028.8;;;2.9;67.8
61880;BME280;47817;52.798;27.544;2023-01-28T13:11:19;1028.7;;;3;67.7
61880;BME280;47817;52.798;27.544;2023-01-28T13:16:51;1028.7;;;3.1;67.4
61880;BME280;47817;52.798;27.544;2023-01-28T13:21:28;1028.7;;;3.1;66.9
61880;BME280;47817;52.798;27.544;2023-01-28T13:26:49;1028.7;;;3;66.6
61880;BME280;47817;52.798;27.544;2023-01-28T13:31:49;1028.7;;;2.9;66.8
61880;BME280;47817;52.798;27.544;2023-01-28T13:36:43;1028.7;;;2.7;66.4
61880;BME280;47817;52.798;27.544;2023-01-28T13:41:37;1028.7;;;2.4;66.9
61880;BME280;47817;52.798;27.544;2023-01-28T13:46:08;1028.7;;;2.6;66.7
61880;BME280;47817;52.798;27.544;2023-01-28T13:51:43;1028.7;;;2.6;66.5
61880;BME280;47817;52.798;27.544;2023-01-28T13:56:08;1028.7;;;2.4;66.3
61880;BME280;47817;52.798;27.544;2023-01-28T14:02:38;1028.7;;;2.3;66.5
61880;BME280;47817;52.798;27.544;2023-01-28T14:06:22;1028.7;;;2.1;66.7
61880;BME280;47817;52.798;27.544;2023-01-28T14:11:09;1028.7;;;2;66.9
61880;BME280;47817;52.798;27.544;2023-01-28T14:16:20;1028.7;;;2;67.3
61880;BME280;47817;52.798;27.544;2023-01-28T14:21:53;1028.7;;;1.9;67.5
61880;BME280;47817;52.798;27.544;2023-01-28T14:26:33;1028.7;;;1.9;67.6
61880;BME280;47817;52.798;27.544;2023-01-28T14:31:39;1028.7;;;1.7;68
61880;BME280;47817;52.798;27.544;2023-01-28T14:36:43;1028.7;;;1.8;68.6
61880;BME280;47817;52.798;27.544;2023-01-28T14:41:07;1028.7;;;1.8;68.9
61880;BME280;47817;52.798;27.544;2023-01-28T14:46:42;1028.7;;;1.9;69.2
61880;BME280;47817;52.798;27.544;2023-01-28T14:51:21;1028.6;;;2;69.6
61880;BME280;47817;52.798;27.544;2023-01-28T14:56:31;1028.6;;;2;69.7
61880;BME280;47817;52.798;27.544;2023-01-28T15:01:29;1028.5;;;2;70
61880;BME280;47817;52.798;27.544;2023-01-28T15:06:49;1028.5;;;2;70.2
61880;BME280;47817;52.798;27.544;2023-01-28T15:11:07;1028.5;;;1.9;70.4
61880;BME280;47817;52.798;27.544;2023-01-28T15:16:45;1028.6;;;1.9;70.7
61880;BME280;47817;52.798;27.544;2023-01-28T15:21:41;1028.6;;;1.9;71
61880;BME280;47817;52.798;27.544;2023-01-28T15:26:53;1028.6;;;1.9;71.1
61880;BME280;47817;52.798;27.544;2023-01-28T15:31:51;1028.5;;;1.8;71.4
61880;BME280;47817;52.798;27.544;2023-01-28T15:36:08;1028.4;;;1.8;71.7
61880;BME280;47817;52.798;27.544;2023-01-28T15:41:41;1028.5;;;1.7;71.9
61880;BME280;47817;52.798;27.544;2023-01-28T15:46:17;1028.5;;;1.7;72.1
61880;BME280;47817;52.798;27.544;2023-01-28T15:51:39;1028.6;;;1.6;72.2
61880;BME280;47817;52.798;27.544;2023-01-28T15:56:07;1028.6;;;1.6;72.4
61880;BME280;47817;52.798;27.544;2023-01-28T16:02:01;1028.6;;;1.7;72.6
61880;BME280;47817;52.798;27.544;2023-01-28T16:06:32;1028.6;;;1.7;72.6
61880;BME280;47817;52.798;27.544;2023-01-28T16:11:41;1028.7;;;1.7;72.8
61880;BME280;47817;52.798;27.544;2023-01-28T16:16:32;1028.7;;;1.7;72.8
61880;BME280;47817;52.798;27.544;2023-01-28T16:21:53;1028.7;;;1.8;72.8
61880;BME280;47817;52.798;27.544;2023-01-28T16:26:18;1028.7;;;1.8;72.7
61880;BME280;47817;52.798;27.544;2023-01-28T16:31:29;1028.7;;;1.7;72.6
61880;BME280;47817;52.798;27.544;2023-01-28T16:36:53;1028.7;;;1.7;72.8
61880;BME280;47817;52.798;27.544;2023-01-28T16:41:21;1028.7;;;1.7;72.8
61880;BME280;47817;52.798;27.544;2023-01-28T16:46:31;1028.7;;;1.8;72.8
61880;BME280;47817;52.798;27.544;2023-01-28T16:51:53;1028.7;;;1.7;72.9
61880;BME280;47817;52.798;27.544;2023-01-28T16:56:41;1028.7;;;1.7;73
61880;BME280;47817;52.798;27.544;2023-01-28T17:01:29;1028.7;;;1.7;73.1
61880;BME280;47817;52.798;27.544;2023-01-28T17:06:55;1028.6;;;1.7;73.2
61880;BME280;47817;52.798;27.544;2023-01-28T17:11:07;1028.7;;;1.7;73.1
61880;BME280;47817;52.798;27.544;2023-01-28T17:16:07;1028.7;;;1.7;73
61880;BME280;47817;52.798;27.544;2023-01-28T17:21:19;1028.7;;;1.7;73.2
61880;BME280;47817;52.798;27.544;2023-01-28T17:26:07;1028.8;;;1.8;73
61880;BME280;47817;52.798;27.544;2023-01-28T17:31:31;1028.8;;;1.8;72.8
61880;BME280;47817;52.798;27.544;2023-01-28T17:36:17;1028.8;;;1.8;72.8
61880;BME280;47817;52.798;27.544;2023-01-28T17:41:21;1028.8;;;1.7;73.1
61880;BME280;47817;52.798;27.544;2023-01-28T17:46:47;1028.7;;;1.6;73.2
61880;BME280;47817;52.798;27.544;2023-01-28T17:51:07;1028.8;;;1.6;73.4
61880;BME280;47817;52.798;27.544;2023-01-28T17:56:33;1028.8;;;1.6;73.5
61880;BME280;47817;52.798;27.544;2023-01-28T18:01:53;1028.7;;;1.6;73.3
61880;BME280;47817;52.798;27.544;2023-01-28T18:06:41;1028.7;;;1.6;73.7
61880;BME280;47817;52.798;27.544;2023-01-28T18:11:27;1028.7;;;1.6;73.9
61880;BME280;47817;52.798;27.544;2023-01-28T18:16:19;1028.7;;;1.7;73.7
61880;BME280;47817;52.798;27.544;2023-01-28T18:21:20;1028.8;;;1.7;73.6
61880;BME280;47817;52.798;27.544;2023-01-28T18:26:31;1028.8;;;1.6;73.4
61880;BME280;47817;52.798;27.544;2023-01-28T18:31:54;1028.8;;;1.6;73.6
61880;BME280;47817;52.798;27.544;2023-01-28T18:36:31;1028.8;;;1.6;73.3
61880;BME280;47817;52.798;27.544;2023-01-28T18:41:55;1028.8;;;1.4;73.7
61880;BME280;47817;52.798;27.544;2023-01-28T18:46:08;1028.8;;;1.3;74.2
61880;BME280;47817;52.798;27.544;2023-01-28T18:51:53;1028.8;;;1.2;74.5
61880;BME280;47817;52.798;27.544;2023-01-28T18:56:21;1028.8;;;1.2;74.7
61880;BME280;47817;52.798;27.544;2023-01-28T19:01:39;1028.8;;;1.3;74.7
61880;BME280;47817;52.798;27.544;2023-01-28T19:06:31;1028.8;;;1.3;74.8
61880;BME280;47817;52.798;27.544;2023-01-28T19:11:57;1028.8;;;1.3;74.7
61880;BME280;47817;52.798;27.544;2023-01-28T19:16:07;1028.8;;;1.4;74.7
61880;BME280;47817;52.798;27.544;2023-01-28T19:21:55;1028.8;;;1.4;74.6
61880;BME280;47817;52.798;27.544;2023-01-28T19:26:55;1028.8;;;1.4;74.4
61880;BME280;47817;52.798;27.544;2023-01-28T19:31:39;1028.8;;;1.4;74.5
61880;BME280;47817;52.798;27.544;2023-01-28T19:36:41;1028.8;;;1.5;74.3
61880;BME280;47817;52.798;27.544;2023-01-28T19:41:35;1028.8;;;1.5;74.1
61880;BME280;47817;52.798;27.544;2023-01-28T19:46:41;1028.8;;;1.5;74.3
61880;BME280;47817;52.798;27.544;2023-01-28T19:51:07;1028.8;;;1.4;74.5
61880;BME280;47817;52.798;27.544;2023-01-28T19:56:43;1028.8;;;1.4;74.6
61880;BME280;47817;52.798;27.544;2023-01-28T20:01:07;1028.8;;;1.4;74.8
61880;BME280;47817;52.798;27.544;2023-01-28T20:06:53;1028.8;;;1.5;74.7
61880;BME280;47817;52.798;27.544;2023-01-28T20:11:07;1028.8;;;1.6;74.6
61880;BME280;47817;52.798;27.544;2023-01-28T20:16:55;1028.8;;;1.7;74.6
61880;BME280;47817;52.798;27.544;2023-01-28T20:21:57;1028.8;;;1.7;74.4
61880;BME280;47817;52.798;27.544;2023-01-28T20:26:43;1028.8;;;1.7;74.3
61880;BME280;47817;52.798;27.544;2023-01-28T20:31:15;1028.8;;;1.7;74.5
61880;BME280;47817;52.798;27.544;2023-01-28T20:36:35;1028.8;;;1.8;74.3
61880;BME280;47817;52.798;27.544;2023-01-28T20:41:43;1028.9;;;1.7;74.3
61880;BME280;47817;52.798;27.544;2023-01-28T20:46:22;1028.8;;;1.7;74.6
61880;BME280;47817;52.798;27.544;2023-01-28T20:51:41;1028.8;;;1.7;74.9
61880;BME280;47817;52.798;27.544;2023-01-28T20:56:07;1028.7;;;1.7;74.9
61880;BME280;47817;52.798;27.544;2023-01-28T21:01:41;1028.7;;;1.6;74.9
61880;BME280;47817;52.798;27.544;2023-01-28T21:06:21;1028.7;;;1.7;74.8
61880;BME280;47817;52.798;27.544;2023-01-28T21:11:57;1028.7;;;1.7;74.9
61880;BME280;47817;52.798;27.544;2023-01-28T21:16:45;1028.7;;;1.7;74.9
61880;BME280;47817;52.798;27.544;2023-01-28T21:21:43;1028.7;;;1.7;75.2
61880;BME280;47817;52.798;27.544;2023-01-28T21:26:57;1028.7;;;1.6;75.5
61880;BME280;47817;52.798;27.544;2023-01-28T21:31:07;1028.6;;;1.7;75.7
61880;BME280;47817;52.798;27.544;2023-01-28T21:36:07;1028.5;;;1.7;75.6
61880;BME280;47817;52.798;27.544;2023-01-28T21:41:25;1028.5;;;1.7;75.8
61880;BME280;47817;52.798;27.544;2023-01-28T21:46:45;1028.5;;;1.6;75.9
61880;BME280;47817;52.798;27.544;2023-01-28T21:51:19;1028.5;;;1.6;76.5
61880;BME280;47817;52.798;27.544;2023-01-28T21:56:57;1028.5;;;1.6;76.5
61880;BME280;47817;52.798;27.544;2023-01-28T22:01:31;1028.5;;;1.6;76.8
61880;BME280;47817;52.798;27.544;2023-01-28T22:06:45;1028.4;;;1.6;76.9
61880;BME280;47817;52.798;27.544;2023-01-28T22:11:45;1028.4;;;1.5;76.8
61880;BME280;47817;52.798;27.544;2023-01-28T22:16:57;1028.4;;;1.6;76.7
61880;BME280;47817;52.798;27.544;2023-01-28T22:21:31;1028.3;;;1.5;76.7
61880;BME280;47817;52.798;27.544;2023-01-28T22:26:17;1028.3;;;1.4;76.9
61880;BME280;47817;52.798;27.544;2023-01-28T22:31:53;1028.3;;;1.4;77
61880;BME280;47817;52.798;27.544;2023-01-28T22:36:07;1028.3;;;1.4;77.1
61880;BME280;47817;52.798;27.544;2023-01-28T22:41:43;1028.2;;;1.4;77.1
61880;BME280;47817;52.798;27.544;2023-01-28T22:46:57;1028.2;;;1.4;77.3
61880;BME280;47817;52.798;27.544;2023-01-28T22:51:57;1028.2;;;1.4;77.5
61880;BME280;47817;52.798;27.544;2023-01-28T22:56:27;1028.2;;;1.3;77.7
61880;BME280;47817;52.798;27.544;2023-01-28T23:01:53;1028.2;;;1.3;77.7
61880;BME280;47817;52.798;27.544;2023-01-28T23:06:27;1028.1;;;1.2;77.6
61880;BME280;47817;52.798;27.544;2023-01-28T23:11:07;1028.1;;;1.2;77.8
61880;BME280;47817;52.798;27.544;2023-01-28T23:16:27;1028;;;1.2;78
61880;BME280;47817;52.798;27.544;2023-01-28T23:21:07;1028;;;1.1;77.9
61880;BME280;47817;52.798;27.544;2023-01-28T23:26:29;1028;;;1.1;77.9
61880;BME280;47817;52.798;27.544;2023-01-28T23:31:17;1028;;;1.1;78
61880;BME280;47817;52.798;27.544;2023-01-28T23:36:31;1027.9;;;1;78.4
61880;BME280;47817;52.798;27.544;2023-01-28T23:41:49;1027.8;;;1.1;78.4
61880;BME280;47817;52.798;27.544;2023-01-28T23:46:29;1027.8;;;1.1;78.6
61880;BME280;47817;52.798;27.544;2023-01-28T23:51:29;1027.7;;;1;78.6
61880;BME280;47817;52.798;27.544;2023-01-28T23:56:51;1027.7;;;1;78.6
